Time;durP1;ratioP1;P1;durP2;ratioP2;P2;SDS_P1;SDS_P2;PMS_P1;PMS_P2;Temp;Humidity;BMP_temperature;BMP_pressure;BME280_temperature;BME280_humidity;BME280_pressure;Samples;Min_cycle;Max_cycle;Signal;HPM_P1;HPM_P2
2023/11/05 00:00:48;;;;;;;1.00;0.90;;;8.30;99.90;;;;;;4980715;28;20638;-65
2023/11/05 00:03:15;;;;;;;1.50;0.90;;;8.30;99.90;;;;;;4982025;28;20251;-65
2023/11/05 00:05:42;;;;;;;0.98;0.68;;;8.40;99.90;;;;;;4984071;28;20199;-65
2023/11/05 00:08:08;;;;;;;0.90;0.70;;;8.40;99.90;;;;;;4983585;28;20203;-65
2023/11/05 00:10:35;;;;;;;0.90;0.77;;;8.30;99.90;;;;;;4979484;28;20212;-65
2023/11/05 00:13:03;;;;;;;0.80;0.70;;;8.40;99.90;;;;;;4978965;28;20211;-65
2023/11/05 04:34:14;;;;;;;2.88;1.08;;;9.60;99.90;;;;;;4964913;28;20208;-67
2023/11/05 04:36:41;;;;;;;1.55;0.90;;;9.60;99.90;;;;;;4966269;28;20226;-66
2023/11/05 04:39:09;;;;;;;1.02;0.80;;;9.60;99.90;;;;;;4972947;28;20211;-67
2023/11/05 04:41:36;;;;;;;2.00;1.00;;;9.70;99.90;;;;;;4964813;28;20254;-67
2023/11/05 04:44:03;;;;;;;1.33;0.90;;;9.70;99.90;;;;;;4962108;28;20212;-67
2023/11/05 04:46:29;;;;;;;0.90;0.70;;;9.70;99.90;;;;;;4958639;28;20220;-67
2023/11/05 04:48:56;;;;;;;1.45;0.82;;;9.70;99.90;;;;;;4961205;28;20299;-66
2023/11/05 04:51:25;;;;;;;0.90;0.80;;;9.70;99.90;;;;;;4961078;28;20267;-66
2023/11/05 04:53:51;;;;;;;1.05;0.95;;;9.70;99.90;;;;;;4957557;28;20581;-66
2023/11/05 04:56:18;;;;;;;1.23;0.88;;;9.70;99.90;;;;;;4958559;28;20255;-67
2023/11/05 04:58:45;;;;;;;1.65;0.80;;;9.60;99.90;;;;;;4958295;28;20212;-67
2023/11/05 05:01:12;;;;;;;1.00;0.77;;;9.60;99.90;;;;;;4957885;28;20228;-67
2023/11/05 05:03:38;;;;;;;1.00;0.90;;;9.60;99.90;;;;;;4959628;28;20588;-66
2023/11/05 05:06:06;;;;;;;2.88;0.80;;;9.60;99.90;;;;;;4968252;28;20208;-67
2023/11/05 05:08:34;;;;;;;2.72;1.10;;;9.60;99.90;;;;;;4966347;28;20607;-67
2023/11/05 05:11:01;;;;;;;2.38;0.80;;;9.60;99.90;;;;;;4962530;28;20239;-67
2023/11/05 05:13:28;;;;;;;1.60;1.00;;;9.60;99.90;;;;;;4960197;28;20697;-67
2023/11/05 05:15:55;;;;;;;1.65;0.80;;;9.50;99.90;;;;;;4963035;28;20502;-67
2023/11/05 05:18:22;;;;;;;1.13;0.70;;;9.50;99.90;;;;;;4959211;28;20209;-67
2023/11/05 05:20:48;;;;;;;1.25;0.90;;;9.50;99.90;;;;;;4966440;28;20250;-67
2023/11/05 05:23:15;;;;;;;2.45;0.98;;;9.50;99.90;;;;;;4961264;28;20213;-67
2023/11/05 05:25:43;;;;;;;3.10;1.05;;;9.50;99.90;;;;;;4959343;28;20290;-67
2023/11/05 05:28:10;;;;;;;2.38;0.80;;;9.50;99.90;;;;;;4957779;28;20575;-67
2023/11/05 05:30:37;;;;;;;0.93;0.82;;;9.50;99.90;;;;;;4963271;28;20227;-67
2023/11/05 05:33:04;;;;;;;1.55;0.80;;;9.50;99.90;;;;;;4958102;28;20611;-67
2023/11/05 05:35:31;;;;;;;1.00;0.70;;;9.40;99.90;;;;;;4960630;28;20208;-66
2023/11/05 05:37:57;;;;;;;1.17;1.00;;;9.50;99.90;;;;;;4968166;28;20200;-67
2023/11/05 05:40:24;;;;;;;5.88;0.98;;;9.40;99.90;;;;;;4965224;28;20673;-67
2023/11/05 05:42:52;;;;;;;3.65;0.77;;;9.40;99.90;;;;;;4963970;28;20208;-67
2023/11/05 05:45:19;;;;;;;1.45;0.70;;;9.40;99.90;;;;;;4959058;28;20208;-67
2023/11/05 05:47:45;;;;;;;1.02;0.77;;;9.30;99.90;;;;;;4966275;28;20208;-67
2023/11/05 05:50:12;;;;;;;3.10;1.10;;;9.30;99.90;;;;;;4961967;28;20216;-67
2023/11/05 05:52:39;;;;;;;2.08;0.90;;;9.30;99.90;;;;;;4961549;28;20449;-67
2023/11/05 05:55:09;;;;;;;0.90;0.70;;;9.30;99.90;;;;;;4962467;28;20220;-67
2023/11/05 05:57:36;;;;;;;1.77;0.80;;;9.30;99.90;;;;;;4969313;28;20306;-66
2023/11/05 06:00:09;;;;;;;1.00;0.90;;;9.30;99.90;;;;;;4962668;28;20585;-67
2023/11/05 06:02:35;;;;;;;0.98;0.70;;;9.30;99.90;;;;;;4970577;28;20603;-66
2023/11/05 06:05:02;;;;;;;1.92;1.00;;;9.30;99.90;;;;;;4967473;28;20215;-66
2023/11/05 06:07:31;;;;;;;0.90;0.70;;;9.20;99.90;;;;;;4964559;28;20292;-66
2023/11/05 06:09:58;;;;;;;2.55;1.02;;;9.20;99.90;;;;;;4967581;28;20205;-67
2023/11/05 06:12:25;;;;;;;1.02;0.82;;;9.10;99.90;;;;;;4969249;28;20228;-67
2023/11/05 06:14:52;;;;;;;1.23;1.00;;;9.10;99.90;;;;;;4963642;28;20258;-66
2023/11/05 06:17:20;;;;;;;1.98;0.80;;;9.10;99.90;;;;;;4962975;28;20225;-66
2023/11/05 06:19:46;;;;;;;3.35;1.15;;;9.10;99.90;;;;;;4964279;28;20696;-67
2023/11/05 06:22:13;;;;;;;2.55;0.88;;;9.20;99.90;;;;;;4962749;28;20224;-67
2023/11/05 06:24:41;;;;;;;1.98;1.02;;;9.20;99.90;;;;;;4970837;28;20207;-67
2023/11/05 06:27:08;;;;;;;1.48;0.80;;;9.20;99.90;;;;;;4966156;28;20205;-67
2023/11/05 06:29:35;;;;;;;1.73;0.80;;;9.20;99.90;;;;;;4970741;28;20208;-67
2023/11/05 06:32:02;;;;;;;0.95;0.85;;;9.20;99.90;;;;;;4975031;28;20223;-67
2023/11/05 06:34:30;;;;;;;1.65;0.77;;;9.20;99.90;;;;;;4966179;28;20212;-67
2023/11/05 06:36:57;;;;;;;0.80;0.80;;;9.20;99.90;;;;;;4962578;28;20224;-67
2023/11/05 06:39:24;;;;;;;0.80;0.70;;;9.10;99.90;;;;;;4964510;28;20211;-67
2023/11/05 06:41:51;;;;;;;1.20;0.90;;;9.10;99.90;;;;;;4970344;28;20227;-67
2023/11/05 06:44:17;;;;;;;1.75;1.08;;;9.10;99.90;;;;;;4975164;28;20220;-67
2023/11/05 06:46:44;;;;;;;0.90;0.70;;;9.20;99.90;;;;;;4969931;28;20294;-66
2023/11/05 06:49:11;;;;;;;2.55;0.90;;;9.20;99.90;;;;;;4975127;28;20215;-67
2023/11/05 06:51:39;;;;;;;1.40;0.80;;;9.10;99.90;;;;;;4967170;28;20322;-67
2023/11/05 06:54:06;;;;;;;0.80;0.70;;;9.20;99.90;;;;;;4975143;28;20231;-67
2023/11/05 06:56:34;;;;;;;0.90;0.70;;;9.20;99.90;;;;;;4970396;28;20708;-68
2023/11/05 06:59:02;;;;;;;1.25;0.90;;;9.20;99.90;;;;;;4969733;28;20294;-66
2023/11/05 07:01:30;;;;;;;2.00;0.80;;;9.30;99.90;;;;;;4970445;28;20233;-67
2023/11/05 07:03:57;;;;;;;0.90;0.77;;;9.30;99.90;;;;;;4971919;28;20247;-66
2023/11/05 07:06:23;;;;;;;2.95;0.70;;;9.30;99.90;;;;;;4972772;28;20629;-66
2023/11/05 07:08:51;;;;;;;2.95;1.27;;;9.30;99.90;;;;;;4967771;28;20211;-66
2023/11/05 07:11:18;;;;;;;1.08;0.80;;;9.40;99.90;;;;;;4964138;28;20237;-66
2023/11/05 07:13:45;;;;;;;0.90;0.80;;;9.50;99.90;;;;;;4973714;28;20579;-67
2023/11/05 07:16:12;;;;;;;1.40;0.85;;;9.50;99.90;;;;;;4967127;28;20214;-66
2023/11/05 07:18:38;;;;;;;0.98;0.88;;;9.40;99.90;;;;;;4970225;28;20579;-67
2023/11/05 07:21:05;;;;;;;1.13;0.80;;;9.40;99.90;;;;;;4970112;28;20232;-67
2023/11/05 07:23:32;;;;;;;0.80;0.70;;;9.50;99.90;;;;;;4970350;28;20210;-67
2023/11/05 07:26:00;;;;;;;0.98;0.70;;;9.50;99.90;;;;;;4973922;28;20680;-67
2023/11/05 07:28:27;;;;;;;1.10;0.82;;;9.60;99.90;;;;;;4968562;28;20204;-66
2023/11/05 07:30:54;;;;;;;1.02;0.77;;;9.80;99.90;;;;;;4970106;28;20228;-67
2023/11/05 07:33:21;;;;;;;1.10;0.90;;;10.00;99.90;;;;;;4968251;28;20213;-67
2023/11/05 07:35:47;;;;;;;0.80;0.70;;;10.20;99.90;;;;;;4973769;28;20215;-67
2023/11/05 07:38:14;;;;;;;1.50;1.20;;;10.30;99.90;;;;;;4973669;28;20604;-66
2023/11/05 07:40:41;;;;;;;0.80;0.70;;;10.30;99.90;;;;;;4974167;28;20250;-66
2023/11/05 07:43:09;;;;;;;0.85;0.68;;;10.20;99.90;;;;;;4973753;28;20208;-66
2023/11/05 07:45:36;;;;;;;1.10;0.80;;;10.20;99.90;;;;;;4970375;28;20219;-66
2023/11/05 07:48:03;;;;;;;1.13;0.90;;;10.40;99.90;;;;;;4967183;28;20204;-66
2023/11/05 07:50:30;;;;;;;0.90;0.77;;;10.50;99.90;;;;;;4965857;28;20239;-66
2023/11/05 07:52:57;;;;;;;0.90;0.75;;;10.60;99.90;;;;;;4964691;28;20212;-66
2023/11/05 07:55:24;;;;;;;0.90;0.60;;;10.70;99.90;;;;;;4971813;28;20212;-66
2023/11/05 07:57:51;;;;;;;0.90;0.70;;;10.80;99.90;;;;;;4968771;28;20224;-66
2023/11/05 08:00:20;;;;;;;0.90;0.70;;;11.00;99.90;;;;;;4967905;28;20295;-66
2023/11/05 08:02:47;;;;;;;0.90;0.70;;;11.20;99.90;;;;;;4959262;28;20643;-66
2023/11/05 08:05:14;;;;;;;1.90;0.77;;;11.50;99.90;;;;;;4965370;28;20208;-66
2023/11/05 08:07:42;;;;;;;0.90;0.70;;;11.80;99.90;;;;;;4969298;28;20296;-66
2023/11/05 08:10:10;;;;;;;0.90;0.60;;;12.10;99.90;;;;;;4969251;28;20211;-66
2023/11/05 08:12:37;;;;;;;1.23;0.80;;;12.40;99.90;;;;;;4965654;28;20231;-67
2023/11/05 08:15:06;;;;;;;1.02;0.70;;;12.40;99.90;;;;;;4967327;28;20742;-66
2023/11/05 08:17:34;;;;;;;0.80;0.70;;;12.40;99.90;;;;;;4964917;28;20220;-66
2023/11/05 08:20:01;;;;;;;1.52;0.70;;;12.90;99.90;;;;;;4972259;28;20636;-67
2023/11/05 08:22:28;;;;;;;1.10;0.70;;;13.30;99.90;;;;;;4964812;28;20612;-67
2023/11/05 08:24:55;;;;;;;1.02;0.80;;;13.30;99.90;;;;;;4965733;28;20468;-67
2023/11/05 08:27:22;;;;;;;1.30;0.80;;;12.90;99.90;;;;;;4972212;28;20723;-67
2023/11/05 08:29:48;;;;;;;0.80;0.60;;;12.60;99.90;;;;;;4969071;28;20473;-67
2023/11/05 08:32:17;;;;;;;0.88;0.70;;;12.60;99.90;;;;;;4966351;28;20242;-67
2023/11/05 08:34:45;;;;;;;0.88;0.70;;;12.70;99.90;;;;;;4969289;28;20215;-67
2023/11/05 08:37:12;;;;;;;0.90;0.70;;;13.50;99.90;;;;;;4968529;28;20228;-67
2023/11/05 08:39:39;;;;;;;0.80;0.70;;;14.50;99.90;;;;;;4966700;28;20653;-66
2023/11/05 08:42:07;;;;;;;0.80;0.60;;;15.40;99.90;;;;;;4971826;28;20603;-67
2023/11/05 08:44:33;;;;;;;3.53;0.70;;;15.90;99.90;;;;;;4969158;28;20903;-66
2023/11/05 08:47:00;;;;;;;1.23;0.73;;;16.60;99.90;;;;;;4967332;28;20467;-66
2023/11/05 08:49:27;;;;;;;0.90;0.70;;;16.80;99.90;;;;;;4970947;28;20959;-67
2023/11/05 08:51:57;;;;;;;1.43;0.70;;;16.80;99.90;;;;;;4969186;28;20483;-66
2023/11/05 08:54:24;;;;;;;1.30;0.73;;;15.90;99.90;;;;;;4971838;28;20833;-66
2023/11/05 08:56:51;;;;;;;0.80;0.60;;;14.90;99.90;;;;;;4968383;28;20471;-66
2023/11/05 08:59:18;;;;;;;1.47;0.77;;;14.30;99.90;;;;;;4971810;28;20481;-66
2023/11/05 09:01:44;;;;;;;0.80;0.70;;;13.70;99.90;;;;;;4972568;28;20497;-65
2023/11/05 09:04:13;;;;;;;0.90;0.80;;;13.90;99.90;;;;;;4966099;28;20482;-65
2023/11/05 09:06:40;;;;;;;0.80;0.70;;;14.40;99.90;;;;;;4964530;28;20477;-66
2023/11/05 09:09:11;;;;;;;0.90;0.77;;;15.10;99.90;;;;;;4965994;28;20558;-65
2023/11/05 09:11:39;;;;;;;0.90;0.70;;;15.70;99.90;;;;;;4960511;28;20482;-65
2023/11/05 09:14:14;;;;;;;1.20;0.97;;;15.90;99.90;;;;;;4956772;28;20838;-65
2023/11/05 09:16:41;;;;;;;0.90;0.70;;;15.30;99.90;;;;;;4962351;28;20466;-65
2023/11/05 09:19:08;;;;;;;3.80;0.90;;;14.60;99.90;;;;;;4963791;28;20467;-65
2023/11/05 09:21:38;;;;;;;0.80;0.70;;;14.30;99.90;;;;;;4963551;28;20838;-68
2023/11/05 09:24:05;;;;;;;0.70;0.60;;;14.20;99.90;;;;;;4967149;28;20475;-66
2023/11/05 09:26:33;;;;;;;1.17;0.80;;;14.00;99.90;;;;;;4965342;28;21237;-66
2023/11/05 09:29:00;;;;;;;0.80;0.60;;;13.90;99.90;;;;;;4966328;28;20474;-66
2023/11/05 09:31:28;;;;;;;2.73;0.90;;;13.50;99.90;;;;;;4967435;28;20483;-65
2023/11/05 09:33:55;;;;;;;0.90;0.70;;;13.40;99.90;;;;;;4968391;28;20489;-65
2023/11/05 09:36:22;;;;;;;0.90;0.70;;;13.40;99.90;;;;;;4960118;28;20220;-66
2023/11/05 09:38:49;;;;;;;1.00;0.73;;;13.50;99.90;;;;;;4965566;28;20490;-65
2023/11/05 09:41:19;;;;;;;0.80;0.70;;;13.50;99.90;;;;;;4965894;28;20493;-66
2023/11/05 09:43:49;;;;;;;0.93;0.80;;;13.30;99.90;;;;;;4969431;28;20305;-65
2023/11/05 09:46:17;;;;;;;0.90;0.70;;;13.00;99.90;;;;;;4967933;28;20502;-65
2023/11/05 09:48:45;;;;;;;1.10;0.60;;;12.70;99.90;;;;;;4962079;28;20210;-67
2023/11/05 09:51:12;;;;;;;1.00;0.70;;;12.30;99.90;;;;;;4970371;28;20256;-67
2023/11/05 09:53:39;;;;;;;1.00;0.60;;;12.20;99.90;;;;;;4963866;28;20210;-66
2023/11/05 09:56:07;;;;;;;5.57;1.00;;;12.30;99.90;;;;;;4964396;28;20220;-67
2023/11/05 09:58:34;;;;;;;0.93;0.67;;;12.50;99.90;;;;;;4966749;28;20224;-65
2023/11/05 10:01:05;;;;;;;0.80;0.70;;;12.80;99.90;;;;;;4968471;28;20569;-65
2023/11/05 10:03:32;;;;;;;0.95;0.73;;;13.00;99.90;;;;;;4968789;28;20281;-65
2023/11/05 10:05:59;;;;;;;0.80;0.73;;;12.90;99.90;;;;;;4969069;28;20208;-65
2023/11/05 10:08:25;;;;;;;0.90;0.70;;;12.70;99.90;;;;;;4967519;28;20223;-65
2023/11/05 10:10:58;;;;;;;1.27;0.70;;;12.50;99.90;;;;;;4967764;28;20492;-67
2023/11/05 10:13:27;;;;;;;1.10;1.00;;;12.40;99.90;;;;;;4968247;28;20253;-66
2023/11/05 10:15:59;;;;;;;1.85;0.90;;;12.50;99.90;;;;;;4967380;28;20205;-65
2023/11/05 10:18:28;;;;;;;1.63;0.90;;;12.30;99.90;;;;;;4966179;28;20242;-66
2023/11/05 10:20:56;;;;;;;0.80;0.60;;;12.10;99.90;;;;;;4963505;28;20316;-67
2023/11/05 10:23:23;;;;;;;4.53;0.88;;;12.00;99.90;;;;;;4964354;28;20228;-67
2023/11/05 10:25:51;;;;;;;1.42;0.88;;;11.90;99.90;;;;;;4963255;28;20222;-67
2023/11/05 10:28:19;;;;;;;1.10;0.80;;;11.90;99.90;;;;;;4962994;28;20693;-68
2023/11/05 10:30:48;;;;;;;2.45;0.95;;;11.90;99.90;;;;;;4963690;28;20245;-68
2023/11/05 10:33:15;;;;;;;1.27;1.10;;;11.80;99.90;;;;;;4963780;28;20489;-68
2023/11/05 10:35:44;;;;;;;1.05;0.88;;;11.80;99.90;;;;;;4962977;28;20701;-71
2023/11/05 10:38:14;;;;;;;1.40;0.82;;;11.90;99.90;;;;;;4964295;28;20798;-71
2023/11/05 10:40:41;;;;;;;0.90;0.77;;;11.80;99.90;;;;;;4963766;28;20630;-71
2023/11/05 10:43:07;;;;;;;0.80;0.70;;;11.70;99.90;;;;;;4962298;28;20593;-71
2023/11/05 10:45:37;;;;;;;0.90;0.70;;;11.60;99.90;;;;;;4965734;28;20248;-71
2023/11/05 10:48:09;;;;;;;1.40;1.10;;;11.50;99.90;;;;;;4969515;28;20281;-71
2023/11/05 10:50:38;;;;;;;1.10;0.80;;;11.40;99.90;;;;;;4974451;28;20236;-71
2023/11/05 10:53:08;;;;;;;1.20;0.77;;;11.30;99.90;;;;;;4964530;28;20219;-71
2023/11/05 10:55:36;;;;;;;1.00;0.70;;;11.30;99.90;;;;;;4973866;28;20213;-71
2023/11/05 10:58:06;;;;;;;0.77;0.60;;;11.20;99.90;;;;;;4965575;28;20225;-70
2023/11/05 11:01:14;;;;;;;1.85;0.80;;;11.20;99.90;;;;;;4973311;28;20213;-71
2023/11/05 11:03:41;;;;;;;0.95;0.70;;;11.10;99.90;;;;;;4944514;29;20213;-72
2023/11/05 11:06:08;;;;;;;0.80;0.70;;;11.10;99.90;;;;;;4950948;29;20225;-70
2023/11/05 11:08:37;;;;;;;5.50;0.80;;;11.20;99.90;;;;;;4950054;28;20674;-71
2023/11/05 11:11:15;;;;;;;0.80;0.70;;;11.30;99.90;;;;;;4974015;28;20635;-71
2023/11/05 11:13:56;;;;;;;0.80;0.70;;;11.30;99.90;;;;;;4966561;28;20215;-70
2023/11/05 11:16:30;;;;;;;1.10;0.80;;;11.30;99.90;;;;;;4970942;28;20236;-70
2023/11/05 11:19:00;;;;;;;1.23;0.75;;;11.40;99.90;;;;;;4972401;28;20359;-70
2023/11/05 11:21:27;;;;;;;0.90;0.70;;;11.20;99.90;;;;;;4973317;28;20282;-69
2023/11/05 11:23:55;;;;;;;0.90;0.70;;;11.10;99.90;;;;;;4971757;28;20716;-69
2023/11/05 11:26:26;;;;;;;1.10;0.80;;;11.10;99.90;;;;;;4967537;28;20221;-70
2023/11/05 11:29:04;;;;;;;2.00;0.80;;;11.10;99.90;;;;;;4962330;28;20627;-68
2023/11/05 11:31:35;;;;;;;1.73;0.85;;;11.00;99.90;;;;;;4971949;28;20228;-68
2023/11/05 11:34:07;;;;;;;0.80;0.70;;;11.00;99.90;;;;;;4968463;28;20564;-70
2023/11/05 11:36:36;;;;;;;0.70;0.60;;;11.00;99.90;;;;;;4965727;28;20304;-71
2023/11/05 11:39:06;;;;;;;1.15;0.70;;;11.00;99.90;;;;;;4967111;28;20247;-70
2023/11/05 11:41:39;;;;;;;0.80;0.70;;;11.00;99.90;;;;;;4972613;28;20245;-71
2023/11/05 11:44:06;;;;;;;0.80;0.70;;;11.10;99.90;;;;;;4972303;28;20284;-70
2023/11/05 11:46:33;;;;;;;1.20;0.70;;;11.10;99.90;;;;;;4970923;28;20216;-70
2023/11/05 11:49:14;;;;;;;0.80;0.70;;;11.20;99.90;;;;;;4968494;28;20601;-70
2023/11/05 11:51:52;;;;;;;0.73;0.60;;;11.20;99.90;;;;;;4965124;28;20980;-71
2023/11/05 11:54:24;;;;;;;1.13;0.82;;;11.20;99.90;;;;;;4971760;28;20298;-70
2023/11/05 11:56:51;;;;;;;0.70;0.60;;;11.20;99.90;;;;;;4970108;28;20304;-71
2023/11/05 11:59:23;;;;;;;0.70;0.60;;;11.10;99.90;;;;;;4970219;28;20307;-70
2023/11/05 12:01:49;;;;;;;0.73;0.60;;;11.10;99.90;;;;;;4972174;28;20220;-70
2023/11/05 12:04:17;;;;;;;0.90;0.80;;;11.10;99.90;;;;;;4970375;28;20217;-70
2023/11/05 12:06:46;;;;;;;0.80;0.60;;;11.10;99.90;;;;;;4972827;28;20204;-71
2023/11/05 12:09:21;;;;;;;1.65;0.70;;;11.20;99.90;;;;;;4963197;28;20233;-71
2023/11/05 12:11:49;;;;;;;1.10;0.68;;;11.20;99.90;;;;;;4972455;28;20232;-70
2023/11/05 12:14:21;;;;;;;0.80;0.70;;;11.20;99.90;;;;;;4965304;28;20213;-71
2023/11/05 12:16:47;;;;;;;0.80;0.70;;;11.20;99.90;;;;;;4966123;28;20213;-70
2023/11/05 12:19:15;;;;;;;0.80;0.70;;;11.20;99.90;;;;;;4966276;28;20228;-70
2023/11/05 12:21:43;;;;;;;0.80;0.70;;;11.20;99.90;;;;;;4972069;28;20226;-69
2023/11/05 12:24:11;;;;;;;0.82;0.80;;;11.20;99.90;;;;;;4966701;28;20714;-70
2023/11/05 12:26:41;;;;;;;0.90;0.70;;;11.20;99.90;;;;;;4964351;28;20208;-70
2023/11/05 12:29:10;;;;;;;0.80;0.70;;;11.20;99.90;;;;;;4967238;28;20213;-69
2023/11/05 12:31:38;;;;;;;2.08;1.00;;;11.10;99.90;;;;;;4964970;28;20369;-71
2023/11/05 12:34:04;;;;;;;0.80;0.60;;;11.00;99.90;;;;;;4967616;28;20216;-70
2023/11/05 12:36:31;;;;;;;0.90;0.60;;;10.90;99.90;;;;;;4971664;28;20829;-70
2023/11/05 12:38:58;;;;;;;1.20;0.80;;;10.90;99.90;;;;;;4967850;28;20227;-70
2023/11/05 12:41:25;;;;;;;0.80;0.70;;;10.70;99.90;;;;;;4962378;28;20258;-70
2023/11/05 12:43:53;;;;;;;0.80;0.70;;;10.80;99.90;;;;;;4952744;28;20209;-71
2023/11/05 12:46:20;;;;;;;0.80;0.70;;;10.90;99.90;;;;;;4960506;28;20222;-70
2023/11/05 12:48:49;;;;;;;0.80;0.73;;;11.00;99.90;;;;;;4953146;28;20204;-69
2023/11/05 12:51:15;;;;;;;0.80;0.80;;;10.90;99.90;;;;;;4960880;28;20243;-71
2023/11/05 12:53:42;;;;;;;1.15;0.90;;;10.90;99.90;;;;;;4960562;28;20210;-70
2023/11/05 12:56:12;;;;;;;1.08;0.75;;;10.80;99.90;;;;;;4960947;28;20588;-70
2023/11/05 12:58:40;;;;;;;0.80;0.70;;;10.80;99.90;;;;;;4955429;28;20231;-70
2023/11/05 13:01:10;;;;;;;0.80;0.60;;;10.80;99.90;;;;;;4970565;28;20243;-70
2023/11/05 13:03:37;;;;;;;3.85;1.23;;;10.70;99.90;;;;;;4949982;28;20773;-70
2023/11/05 13:06:09;;;;;;;1.10;0.80;;;10.70;99.90;;;;;;4957456;28;20213;-69
2023/11/05 13:08:36;;;;;;;0.90;0.70;;;10.60;99.90;;;;;;4955576;28;20272;-69
2023/11/05 13:11:04;;;;;;;0.80;0.70;;;10.70;99.90;;;;;;4971022;28;20275;-69
2023/11/05 13:13:33;;;;;;;0.80;0.70;;;10.70;99.90;;;;;;4961824;28;20215;-70
2023/11/05 13:16:01;;;;;;;1.00;0.80;;;10.70;99.90;;;;;;4966593;28;20242;-70
2023/11/05 13:18:30;;;;;;;1.40;1.20;;;10.70;99.90;;;;;;4970862;28;20223;-69
2023/11/05 13:20:57;;;;;;;1.38;0.80;;;10.70;99.90;;;;;;4966473;28;20229;-69
2023/11/05 13:23:25;;;;;;;1.90;0.90;;;10.80;99.90;;;;;;4969296;28;20298;-70
2023/11/05 13:25:52;;;;;;;0.80;0.70;;;10.70;99.90;;;;;;4971593;28;20214;-69
2023/11/05 13:28:20;;;;;;;1.00;0.85;;;10.70;99.90;;;;;;4971126;28;21677;-69
2023/11/05 13:30:47;;;;;;;0.90;0.75;;;10.70;99.90;;;;;;4972100;28;20227;-69
2023/11/05 13:33:14;;;;;;;1.30;0.90;;;10.70;99.90;;;;;;4957443;28;20309;-69
2023/11/05 13:35:44;;;;;;;0.80;0.70;;;10.70;99.90;;;;;;4964529;28;20685;-69
2023/11/05 13:38:11;;;;;;;0.80;0.70;;;10.70;99.90;;;;;;4965972;28;20224;-70
2023/11/05 13:40:38;;;;;;;0.80;0.70;;;10.70;99.90;;;;;;4957487;28;20800;-71
2023/11/05 13:43:05;;;;;;;0.90;0.77;;;10.70;99.90;;;;;;4966592;28;20264;-69
2023/11/05 13:45:31;;;;;;;1.15;0.77;;;10.70;99.90;;;;;;4954504;28;20217;-68
2023/11/05 13:47:59;;;;;;;1.60;0.80;;;10.70;99.90;;;;;;4953568;28;20288;-68
2023/11/05 13:50:27;;;;;;;0.80;0.70;;;10.60;99.90;;;;;;4972344;28;20235;-68
2023/11/05 13:52:56;;;;;;;0.80;0.70;;;10.60;99.90;;;;;;4970299;28;20205;-68
2023/11/05 13:55:23;;;;;;;1.67;1.00;;;10.50;99.90;;;;;;4964973;28;20315;-68
2023/11/05 13:57:51;;;;;;;1.08;0.70;;;10.50;99.90;;;;;;4960814;28;20303;-68
2023/11/05 14:00:19;;;;;;;0.80;0.77;;;10.50;99.90;;;;;;4962683;28;20228;-68
2023/11/05 14:02:46;;;;;;;1.00;0.70;;;10.40;99.90;;;;;;4954298;28;20237;-68
2023/11/05 14:05:14;;;;;;;1.50;0.70;;;10.40;99.90;;;;;;4961323;28;20222;-67
2023/11/05 14:07:41;;;;;;;0.93;0.82;;;10.40;99.90;;;;;;4965375;28;20223;-69
2023/11/05 14:10:11;;;;;;;0.85;0.70;;;10.30;99.90;;;;;;4958658;28;20726;-69
2023/11/05 14:12:39;;;;;;;0.93;0.82;;;10.30;99.90;;;;;;4964628;28;20240;-71
2023/11/05 14:15:08;;;;;;;3.83;0.90;;;10.30;99.90;;;;;;4971507;28;20963;-69
2023/11/05 14:17:35;;;;;;;0.90;0.80;;;10.20;99.90;;;;;;4970644;28;20216;-71
2023/11/05 14:20:05;;;;;;;0.90;0.70;;;10.20;99.90;;;;;;4975018;28;20224;-69
2023/11/05 14:22:35;;;;;;;1.00;0.90;;;10.10;99.90;;;;;;4975616;28;20338;-69
2023/11/05 14:25:01;;;;;;;1.80;0.90;;;10.10;99.90;;;;;;4973473;28;20217;-69
2023/11/05 14:27:29;;;;;;;0.70;0.68;;;10.00;99.90;;;;;;4974209;28;20219;-69
2023/11/05 14:29:56;;;;;;;0.82;0.80;;;10.00;99.90;;;;;;4974707;28;20247;-69
2023/11/05 14:32:23;;;;;;;0.80;0.77;;;10.00;99.90;;;;;;4961238;28;20606;-71
2023/11/05 14:34:50;;;;;;;1.00;0.90;;;10.00;99.90;;;;;;4963433;28;20209;-71
2023/11/05 14:37:16;;;;;;;0.80;0.70;;;10.00;99.90;;;;;;4958277;28;20771;-71
2023/11/05 14:39:44;;;;;;;1.42;0.90;;;10.00;99.90;;;;;;4968079;28;20228;-70
2023/11/05 14:42:11;;;;;;;1.17;0.82;;;10.00;99.90;;;;;;4962168;28;20264;-70
2023/11/05 14:44:39;;;;;;;5.05;0.85;;;9.90;99.90;;;;;;4973102;28;20740;-70
2023/11/05 14:47:06;;;;;;;1.20;0.80;;;9.90;99.90;;;;;;4962423;28;20670;-70
2023/11/05 14:49:34;;;;;;;0.80;0.70;;;9.90;99.90;;;;;;4973714;28;20295;-70
2023/11/05 14:52:02;;;;;;;0.80;0.70;;;9.90;99.90;;;;;;4974534;28;20223;-71
2023/11/05 14:54:30;;;;;;;0.80;0.80;;;9.90;99.90;;;;;;4973785;28;20374;-70
2023/11/05 14:56:57;;;;;;;0.90;0.85;;;9.90;99.90;;;;;;4965952;28;20216;-70
2023/11/05 14:59:24;;;;;;;1.52;1.23;;;9.80;99.90;;;;;;4972587;28;20978;-71
2023/11/05 15:01:52;;;;;;;1.10;0.98;;;9.80;99.90;;;;;;4973138;28;20230;-71
2023/11/05 15:04:18;;;;;;;0.80;0.80;;;9.80;99.90;;;;;;4973714;28;20211;-70
2023/11/05 15:06:45;;;;;;;1.70;0.82;;;9.80;99.90;;;;;;4966635;28;20216;-69
2023/11/05 15:09:12;;;;;;;1.25;0.80;;;9.80;99.90;;;;;;4973628;28;20210;-69
2023/11/05 15:11:40;;;;;;;0.73;0.68;;;9.80;99.90;;;;;;4967712;28;20234;-70
2023/11/05 15:14:07;;;;;;;1.55;1.00;;;9.80;99.90;;;;;;4973351;28;20216;-69
2023/11/05 15:16:34;;;;;;;1.00;0.90;;;9.80;99.90;;;;;;4972649;28;20227;-70
2023/11/05 15:19:03;;;;;;;1.33;0.93;;;9.80;99.90;;;;;;4972744;28;20700;-70
2023/11/05 15:21:30;;;;;;;1.10;1.00;;;9.80;99.90;;;;;;4973595;28;20283;-71
2023/11/05 15:23:58;;;;;;;1.15;0.82;;;9.80;99.90;;;;;;4973173;28;20228;-70
2023/11/05 15:26:26;;;;;;;0.80;0.70;;;9.80;99.90;;;;;;4972361;28;20219;-70
2023/11/05 15:28:54;;;;;;;1.23;0.80;;;9.70;99.90;;;;;;4973226;28;20215;-70
2023/11/05 15:31:21;;;;;;;2.15;1.00;;;9.70;99.90;;;;;;4972095;28;20263;-70
2023/11/05 15:33:52;;;;;;;17.92;12.35;;;9.70;99.90;;;;;;4967178;28;20266;-70
2023/11/05 15:36:21;;;;;;;3.67;2.42;;;9.70;99.90;;;;;;4966832;28;20212;-70
2023/11/05 15:38:49;;;;;;;1.10;0.80;;;9.70;99.90;;;;;;4972613;28;20290;-70
2023/11/05 15:41:16;;;;;;;0.75;0.63;;;9.70;99.90;;;;;;4967192;28;20778;-70
2023/11/05 15:43:42;;;;;;;3.70;1.10;;;9.70;99.90;;;;;;4967013;28;20220;-70
2023/11/05 15:46:11;;;;;;;1.20;0.88;;;9.70;99.90;;;;;;4972776;28;20212;-69
2023/11/05 15:48:37;;;;;;;2.67;0.90;;;9.70;99.90;;;;;;4970765;28;20216;-68
2023/11/05 15:51:05;;;;;;;0.93;0.85;;;9.70;99.90;;;;;;4973014;28;20630;-69
2023/11/05 15:53:33;;;;;;;1.42;0.93;;;9.70;99.90;;;;;;4961963;28;20217;-69
2023/11/05 15:56:00;;;;;;;1.10;1.00;;;9.60;99.90;;;;;;4970729;28;20589;-70
2023/11/05 15:58:27;;;;;;;1.10;1.00;;;9.60;99.90;;;;;;4972977;28;20220;-70
2023/11/05 16:00:54;;;;;;;1.20;1.00;;;9.60;99.90;;;;;;4967978;28;20349;-69
2023/11/05 16:03:21;;;;;;;1.08;0.98;;;9.60;99.90;;;;;;4966051;28;20706;-68
2023/11/05 16:05:48;;;;;;;0.80;0.80;;;9.70;99.90;;;;;;4971156;28;20591;-68
2023/11/05 16:08:14;;;;;;;2.45;1.00;;;9.70;99.90;;;;;;4967707;28;20688;-68
2023/11/05 16:10:43;;;;;;;4.13;1.00;;;9.70;99.90;;;;;;4971549;28;20232;-70
2023/11/05 16:13:10;;;;;;;1.00;0.80;;;9.70;99.90;;;;;;4974095;28;20274;-70
2023/11/05 16:15:36;;;;;;;0.80;0.70;;;9.70;99.90;;;;;;4971967;28;20214;-69
2023/11/05 16:18:03;;;;;;;2.03;1.10;;;9.60;99.90;;;;;;4972794;28;20211;-69
2023/11/05 16:20:30;;;;;;;0.90;0.82;;;9.60;99.90;;;;;;4970664;28;20231;-71
2023/11/05 16:22:59;;;;;;;5.05;1.00;;;9.60;99.90;;;;;;4972888;28;20208;-70
2023/11/05 16:25:26;;;;;;;1.10;0.82;;;9.60;99.90;;;;;;4965664;28;20647;-69
2023/11/05 16:27:55;;;;;;;2.95;2.08;;;9.50;99.90;;;;;;4969158;28;20216;-69
2023/11/05 16:30:22;;;;;;;1.55;1.38;;;9.60;99.90;;;;;;4971085;28;20210;-69
2023/11/05 16:32:49;;;;;;;1.65;1.45;;;9.50;99.90;;;;;;4967397;28;20619;-68
2023/11/05 16:35:16;;;;;;;1.00;0.90;;;9.50;99.90;;;;;;4971342;28;20211;-69
2023/11/05 16:37:42;;;;;;;2.28;1.35;;;9.40;99.90;;;;;;4971854;28;20218;-69
2023/11/05 16:40:10;;;;;;;1.10;1.00;;;9.40;99.90;;;;;;4966500;28;20462;-70
2023/11/05 16:42:37;;;;;;;2.45;1.35;;;9.40;99.90;;;;;;4966631;28;20224;-70
2023/11/05 16:45:06;;;;;;;0.90;0.80;;;9.40;99.90;;;;;;4968387;28;20209;-70
2023/11/05 16:47:33;;;;;;;1.38;0.80;;;9.40;99.90;;;;;;4967359;28;20238;-71
2023/11/05 16:50:00;;;;;;;0.90;0.77;;;9.40;99.90;;;;;;4963922;28;20345;-71
2023/11/05 16:52:26;;;;;;;1.67;1.02;;;9.30;99.90;;;;;;4971250;28;20242;-70
2023/11/05 16:54:55;;;;;;;1.25;0.90;;;9.30;99.90;;;;;;4971856;28;20219;-70
2023/11/05 16:57:22;;;;;;;1.10;1.00;;;9.30;99.90;;;;;;4972276;28;20216;-70
2023/11/05 16:59:49;;;;;;;1.10;1.00;;;9.20;99.90;;;;;;4972362;28;20228;-70
2023/11/05 17:02:18;;;;;;;1.33;1.13;;;9.20;99.90;;;;;;4967718;28;20227;-70
2023/11/05 17:04:45;;;;;;;0.90;0.80;;;9.20;99.90;;;;;;4971091;28;20237;-70
2023/11/05 17:07:12;;;;;;;0.80;0.70;;;9.10;99.90;;;;;;4964899;28;20238;-70
2023/11/05 17:09:40;;;;;;;1.00;0.80;;;9.10;99.90;;;;;;4971353;28;20204;-70
2023/11/05 17:12:09;;;;;;;0.80;0.73;;;9.10;99.90;;;;;;4972109;28;20228;-70